Time;durP1;ratioP1;P1;durP2;ratioP2;P2;SDS_P1;SDS_P2;PMS_P1;PMS_P2;Temp;Humidity;BMP_temperature;BMP_pressure;BME280_temperature;BME280_humidity;BME280_pressure;Samples;Min_cycle;Max_cycle;Signal;HPM_P1;HPM_P2
2023/04/24 00:01:47;;;;;;;0.55;0.32;;;18.70;87.00;;;;;;5044717;28;46407;-73
2023/04/24 00:04:16;;;;;;;0.10;0.10;;;18.70;87.30;;;;;;5045289;28;45387;-73
2023/04/24 00:06:43;;;;;;;0.20;0.20;;;18.70;86.80;;;;;;5044955;28;45401;-73
2023/04/24 00:09:10;;;;;;;0.35;0.25;;;18.70;86.60;;;;;;5045564;28;45586;-73
2023/04/24 00:11:38;;;;;;;0.30;0.30;;;18.70;86.10;;;;;;5044744;28;46100;-72
2023/04/24 00:14:04;;;;;;;0.10;0.10;;;18.70;85.90;;;;;;5045241;28;45146;-73
2023/04/24 00:16:31;;;;;;;0.55;0.30;;;18.70;85.80;;;;;;5045327;28;45210;-73
2023/04/24 00:18:58;;;;;;;0.10;0.10;;;18.70;85.60;;;;;;5045110;28;45506;-73
2023/04/24 00:21:26;;;;;;;0.15;0.13;;;18.70;85.80;;;;;;5045232;28;47288;-73
2023/04/24 00:23:54;;;;;;;0.10;0.10;;;18.70;85.70;;;;;;5045910;28;45348;-71
2023/04/24 00:26:20;;;;;;;0.22;0.20;;;18.70;85.60;;;;;;5046511;28;45295;-72
2023/04/24 00:28:47;;;;;;;0.10;0.10;;;18.70;84.70;;;;;;5044816;28;45092;-72
2023/04/24 00:31:14;;;;;;;0.20;0.20;;;18.70;85.90;;;;;;5044676;28;45442;-72
2023/04/24 00:33:41;;;;;;;0.13;0.13;;;18.70;86.20;;;;;;5044515;28;45364;-72
2023/04/24 00:36:08;;;;;;;0.20;0.20;;;18.70;86.40;;;;;;5044604;28;45301;-72
2023/04/24 00:38:36;;;;;;;0.20;0.20;;;18.70;86.80;;;;;;5044816;28;45097;-72
2023/04/24 00:41:03;;;;;;;0.20;0.20;;;18.70;86.40;;;;;;5044658;28;47170;-72
2023/04/24 00:43:30;;;;;;;1.08;0.20;;;18.70;86.60;;;;;;5044751;28;45422;-73
2023/04/24 00:45:57;;;;;;;0.20;0.20;;;18.70;86.80;;;;;;5045032;28;45218;-72
2023/04/24 00:48:24;;;;;;;0.28;0.25;;;18.70;86.30;;;;;;5044528;28;45196;-72
2023/04/24 00:50:51;;;;;;;0.20;0.20;;;18.70;86.30;;;;;;5043727;28;46881;-72
2023/04/24 00:53:18;;;;;;;0.30;0.30;;;18.70;86.40;;;;;;5044311;28;45126;-72
2023/04/24 00:55:46;;;;;;;0.20;0.20;;;18.70;86.10;;;;;;5044501;28;45225;-72
2023/04/24 00:58:13;;;;;;;0.15;0.15;;;18.70;85.60;;;;;;5044534;28;45394;-72
2023/04/24 01:00:40;;;;;;;1.23;0.40;;;18.70;85.30;;;;;;5044290;28;45142;-72
2023/04/24 01:03:08;;;;;;;0.38;0.38;;;18.70;85.20;;;;;;5044244;28;45168;-72
2023/04/24 01:05:35;;;;;;;1.35;0.20;;;18.70;85.00;;;;;;5043299;28;45232;-72
2023/04/24 01:08:03;;;;;;;0.52;0.40;;;18.70;84.70;;;;;;5044816;28;45175;-72
2023/04/24 01:10:32;;;;;;;0.60;0.40;;;18.60;84.50;;;;;;5044398;28;46608;-72
2023/04/24 01:13:00;;;;;;;0.43;0.20;;;18.70;84.80;;;;;;5044261;28;45561;-72
2023/04/24 01:15:27;;;;;;;0.38;0.38;;;18.60;84.50;;;;;;5047160;28;45192;-72
2023/04/24 01:17:54;;;;;;;0.20;0.20;;;18.60;84.10;;;;;;5044337;28;45197;-73
2023/04/24 01:20:21;;;;;;;0.40;0.40;;;18.60;83.70;;;;;;5044063;28;45460;-72
2023/04/24 01:22:49;;;;;;;0.60;0.40;;;18.60;84.20;;;;;;5044143;28;45159;-73
2023/04/24 01:25:16;;;;;;;0.75;0.40;;;18.60;84.50;;;;;;5044301;28;45315;-72
2023/04/24 01:27:43;;;;;;;0.50;0.50;;;18.60;84.90;;;;;;5044459;28;45186;-72
2023/04/24 01:30:11;;;;;;;0.80;0.60;;;18.60;85.20;;;;;;5043822;28;46620;-72
2023/04/24 01:32:39;;;;;;;0.30;0.30;;;18.60;85.40;;;;;;5044066;28;45237;-72
2023/04/24 01:35:07;;;;;;;0.98;0.40;;;18.60;85.50;;;;;;5043741;28;45387;-72
2023/04/24 01:37:34;;;;;;;1.58;0.50;;;18.60;85.40;;;;;;5044610;28;45535;-72
2023/04/24 01:40:03;;;;;;;0.82;0.57;;;18.60;85.50;;;;;;5043847;28;45592;-72
2023/04/24 01:42:30;;;;;;;1.35;0.40;;;18.60;85.40;;;;;;5043905;28;45197;-72
2023/04/24 01:44:58;;;;;;;1.27;0.50;;;18.60;85.20;;;;;;5044028;28;45197;-72
2023/04/24 01:47:25;;;;;;;0.50;0.50;;;18.60;85.50;;;;;;5043772;28;45407;-72
2023/04/24 01:49:52;;;;;;;1.00;0.60;;;18.60;84.90;;;;;;5043333;28;46689;-72
2023/04/24 01:52:19;;;;;;;0.77;0.70;;;18.60;85.00;;;;;;5043638;28;45108;-73
2023/04/24 01:54:46;;;;;;;0.90;0.60;;;18.60;84.50;;;;;;5043794;28;45311;-73
2023/04/24 01:57:14;;;;;;;1.15;0.82;;;18.60;84.90;;;;;;5044207;28;45186;-73
2023/04/24 01:59:41;;;;;;;0.60;0.60;;;18.60;84.30;;;;;;5043479;28;47528;-73
2023/04/24 02:02:08;;;;;;;0.88;0.75;;;18.60;84.20;;;;;;5043699;28;45154;-73
2023/04/24 02:04:35;;;;;;;1.27;0.57;;;18.60;83.80;;;;;;5044003;28;45173;-73
2023/04/24 02:07:02;;;;;;;2.25;0.82;;;18.60;83.90;;;;;;5046621;28;45429;-72
2023/04/24 02:09:29;;;;;;;1.02;0.77;;;18.60;83.70;;;;;;5043602;28;46586;-72
2023/04/24 02:11:56;;;;;;;0.90;0.60;;;18.60;83.50;;;;;;5043232;28;45165;-73
2023/04/24 02:14:24;;;;;;;0.70;0.50;;;18.60;84.90;;;;;;5043462;28;45145;-72
2023/04/24 02:16:51;;;;;;;1.25;0.75;;;18.60;83.90;;;;;;5043420;28;45279;-72
2023/04/24 02:19:17;;;;;;;0.88;0.68;;;18.60;84.00;;;;;;5043226;28;46769;-72
2023/04/24 02:21:44;;;;;;;2.42;0.80;;;18.60;84.50;;;;;;5043378;28;45244;-72
2023/04/24 02:24:11;;;;;;;1.42;0.88;;;18.60;84.50;;;;;;5043472;28;45243;-72
2023/04/24 02:26:38;;;;;;;0.80;0.68;;;18.60;84.90;;;;;;5043217;28;45442;-73
2023/04/24 02:29:05;;;;;;;0.93;0.60;;;18.60;84.50;;;;;;5043250;28;47935;-73
2023/04/24 02:31:33;;;;;;;0.70;0.70;;;18.60;84.60;;;;;;5043093;28;45238;-72
2023/04/24 02:34:00;;;;;;;1.10;0.75;;;18.60;84.80;;;;;;5043621;28;45230;-73
2023/04/24 02:36:27;;;;;;;1.58;0.88;;;18.60;85.00;;;;;;5043040;28;45482;-72
2023/04/24 02:38:54;;;;;;;2.05;1.20;;;18.60;85.00;;;;;;5043073;28;47026;-72
2023/04/24 02:41:20;;;;;;;1.02;0.80;;;18.60;84.90;;;;;;5043086;28;45254;-72
2023/04/24 02:43:47;;;;;;;1.30;1.00;;;18.60;84.80;;;;;;5043233;28;45307;-72
2023/04/24 02:46:14;;;;;;;0.90;0.85;;;18.60;84.50;;;;;;5042946;28;45222;-72
2023/04/24 02:48:42;;;;;;;1.30;0.90;;;18.60;85.60;;;;;;5042642;28;48250;-72
2023/04/24 02:51:09;;;;;;;1.52;0.80;;;18.60;84.60;;;;;;5042732;28;45265;-72
2023/04/24 02:53:36;;;;;;;0.85;0.73;;;18.60;84.40;;;;;;5042962;28;45218;-72
2023/04/24 02:56:03;;;;;;;0.98;0.77;;;18.60;83.90;;;;;;5042832;28;45516;-70
2023/04/24 02:58:30;;;;;;;1.90;0.90;;;18.60;84.50;;;;;;5045664;28;47607;-72
2023/04/24 03:00:57;;;;;;;1.15;0.85;;;18.60;84.30;;;;;;5042675;28;45188;-72
2023/04/24 03:03:24;;;;;;;1.27;0.90;;;18.60;84.20;;;;;;5042727;28;45297;-72
2023/04/24 03:05:53;;;;;;;1.75;0.93;;;18.60;83.60;;;;;;5042644;28;45505;-72
2023/04/24 03:08:20;;;;;;;1.75;0.70;;;18.60;84.00;;;;;;5042345;28;45317;-72
2023/04/24 03:10:47;;;;;;;2.28;1.17;;;18.60;84.30;;;;;;5042693;28;45180;-72
2023/04/24 03:13:13;;;;;;;1.23;0.93;;;18.60;84.60;;;;;;5042943;28;45111;-72
2023/04/24 03:15:40;;;;;;;1.33;0.88;;;18.60;84.50;;;;;;5042907;28;45103;-72
2023/04/24 03:18:07;;;;;;;1.67;0.85;;;18.60;84.50;;;;;;5042308;28;45665;-72
2023/04/24 03:20:34;;;;;;;1.02;0.88;;;18.60;84.50;;;;;;5042352;28;45190;-72
2023/04/24 03:23:02;;;;;;;1.42;1.10;;;18.60;84.60;;;;;;5042491;28;45352;-72
2023/04/24 03:25:29;;;;;;;3.15;1.10;;;18.60;84.70;;;;;;5042578;28;45395;-72
2023/04/24 03:27:56;;;;;;;0.80;0.80;;;18.60;84.70;;;;;;5043672;28;47476;-72
2023/04/24 03:30:23;;;;;;;0.98;0.85;;;18.60;84.90;;;;;;5045405;28;45290;-72
2023/04/24 03:32:49;;;;;;;1.02;0.88;;;18.60;84.60;;;;;;5045690;28;45305;-72
2023/04/24 03:35:16;;;;;;;1.58;1.10;;;18.60;84.50;;;;;;5045466;28;45201;-72
2023/04/24 03:37:43;;;;;;;2.25;1.20;;;18.60;84.40;;;;;;5045199;28;46676;-72
2023/04/24 03:40:12;;;;;;;1.05;0.80;;;18.60;83.80;;;;;;5045696;28;45251;-72
2023/04/24 03:42:38;;;;;;;1.90;0.98;;;18.60;83.70;;;;;;5045727;28;45194;-72
2023/04/24 03:45:06;;;;;;;1.40;0.90;;;18.60;83.60;;;;;;5045421;28;45219;-72
2023/04/24 03:47:33;;;;;;;1.08;0.85;;;18.60;83.20;;;;;;5048147;28;45268;-72
2023/04/24 03:50:00;;;;;;;5.13;0.93;;;18.60;82.80;;;;;;5045011;28;45323;-72
2023/04/24 03:52:27;;;;;;;1.95;1.10;;;18.60;82.70;;;;;;5042910;28;45462;-72
2023/04/24 03:54:53;;;;;;;1.20;1.00;;;18.60;82.50;;;;;;5045587;28;45565;-72
2023/04/24 03:57:22;;;;;;;2.10;1.00;;;18.60;82.40;;;;;;5043886;28;45227;-72
2023/04/24 03:59:48;;;;;;;1.53;1.10;;;18.60;82.40;;;;;;5044537;28;45630;-72
2023/04/24 04:02:15;;;;;;;1.23;0.90;;;18.60;82.40;;;;;;5044426;28;45084;-72
2023/04/24 04:04:42;;;;;;;0.98;0.77;;;18.60;82.90;;;;;;5045206;28;45263;-72
2023/04/24 04:07:08;;;;;;;1.70;1.20;;;18.60;83.30;;;;;;5044024;28;45246;-72
2023/04/24 04:09:35;;;;;;;1.88;1.10;;;18.60;84.10;;;;;;5044254;28;45573;-72
2023/04/24 04:12:02;;;;;;;1.50;1.20;;;18.60;84.00;;;;;;5044422;28;45248;-73
2023/04/24 04:14:30;;;;;;;0.90;0.82;;;18.60;84.10;;;;;;5044448;28;45292;-72
2023/04/24 04:16:57;;;;;;;1.33;1.00;;;18.60;83.60;;;;;;5043688;28;46197;-72
2023/04/24 04:19:24;;;;;;;2.58;1.33;;;18.60;83.90;;;;;;5043489;28;45326;-71
2023/04/24 04:21:53;;;;;;;1.70;1.00;;;18.60;83.60;;;;;;5044486;28;45312;-72
2023/04/24 04:24:20;;;;;;;1.95;0.90;;;18.60;83.80;;;;;;5045188;28;45391;-71
2023/04/24 04:26:47;;;;;;;2.05;0.90;;;18.60;83.80;;;;;;5044748;28;46520;-72
2023/04/24 04:29:15;;;;;;;1.45;0.93;;;18.60;83.60;;;;;;5044597;28;45211;-71
2023/04/24 04:31:43;;;;;;;3.17;1.00;;;18.60;83.40;;;;;;5044850;28;45363;-71
2023/04/24 04:34:10;;;;;;;1.38;1.00;;;18.60;83.00;;;;;;5044647;28;45079;-72
2023/04/24 04:36:39;;;;;;;1.70;1.00;;;18.60;82.60;;;;;;5044511;28;45209;-72
2023/04/24 04:39:06;;;;;;;1.48;1.10;;;18.60;82.80;;;;;;5047414;28;45219;-71
2023/04/24 04:41:34;;;;;;;1.58;0.85;;;18.60;82.40;;;;;;5044707;28;45142;-71
2023/04/24 04:44:04;;;;;;;1.40;0.90;;;18.60;82.20;;;;;;5045131;28;45066;-71
2023/04/24 04:46:32;;;;;;;1.95;0.98;;;18.60;82.40;;;;;;5044545;28;46983;-71
2023/04/24 04:49:00;;;;;;;1.10;0.93;;;18.60;82.30;;;;;;5044272;28;45247;-71
2023/04/24 04:51:28;;;;;;;2.78;1.17;;;18.50;81.80;;;;;;5044213;28;45226;-71
2023/04/24 04:53:54;;;;;;;1.90;0.80;;;18.50;81.40;;;;;;5044376;28;45431;-71
2023/04/24 04:56:21;;;;;;;2.80;1.10;;;18.50;81.50;;;;;;5044165;28;45453;-71
2023/04/24 04:58:48;;;;;;;1.20;1.00;;;18.50;82.10;;;;;;5044815;28;45291;-71
2023/04/24 05:01:15;;;;;;;2.33;1.00;;;18.50;81.70;;;;;;5044266;28;45328;-72
2023/04/24 05:03:42;;;;;;;1.00;0.90;;;18.50;82.00;;;;;;5044702;28;45523;-72
2023/04/24 05:06:10;;;;;;;1.65;1.20;;;18.50;81.30;;;;;;5044483;28;47528;-72
2023/04/24 05:08:37;;;;;;;1.60;1.10;;;18.50;82.40;;;;;;5044270;28;45253;-72
2023/04/24 05:11:04;;;;;;;2.30;0.95;;;18.50;82.10;;;;;;5044333;28;45111;-72
2023/04/24 05:13:31;;;;;;;1.55;0.90;;;18.50;81.80;;;;;;5044669;28;45079;-72
2023/04/24 05:15:59;;;;;;;1.98;1.00;;;18.50;81.70;;;;;;5043861;28;46305;-72
2023/04/24 05:18:25;;;;;;;0.77;0.73;;;18.50;81.40;;;;;;5043948;28;46086;-72
2023/04/24 05:20:52;;;;;;;1.88;1.20;;;18.60;81.20;;;;;;5044249;28;45229;-72
2023/04/24 05:23:20;;;;;;;1.00;0.73;;;18.50;81.00;;;;;;5044716;28;45066;-72
2023/04/24 05:25:47;;;;;;;1.08;0.90;;;18.60;80.90;;;;;;5044036;28;46455;-72
2023/04/24 05:28:15;;;;;;;2.05;1.13;;;18.60;80.90;;;;;;5044097;28;45325;-72
2023/04/24 05:30:42;;;;;;;1.17;0.90;;;18.50;80.40;;;;;;5046739;28;45217;-72
2023/04/24 05:33:09;;;;;;;1.00;0.80;;;18.50;80.10;;;;;;5044320;28;45062;-72
2023/04/24 05:35:36;;;;;;;1.85;1.10;;;18.50;79.30;;;;;;5043903;28;47385;-72
2023/04/24 05:38:03;;;;;;;0.68;0.68;;;18.50;79.50;;;;;;5044186;28;45194;-72
2023/04/24 05:40:31;;;;;;;1.30;0.90;;;18.50;80.00;;;;;;5044105;28;45187;-72
2023/04/24 05:42:58;;;;;;;1.42;0.90;;;18.50;80.80;;;;;;5044397;28;45464;-72
2023/04/24 05:45:24;;;;;;;1.17;0.95;;;18.50;79.50;;;;;;5043496;28;48345;-72
2023/04/24 05:47:52;;;;;;;2.92;1.20;;;18.50;80.50;;;;;;5044134;28;45213;-72
2023/04/24 05:50:19;;;;;;;2.50;1.02;;;18.50;80.90;;;;;;5042733;28;45378;-72
2023/04/24 05:52:45;;;;;;;1.88;0.93;;;18.50;79.90;;;;;;5043913;28;45193;-72
2023/04/24 05:55:13;;;;;;;1.77;1.10;;;18.50;81.50;;;;;;5043520;28;47511;-72
2023/04/24 05:57:41;;;;;;;1.17;0.98;;;18.50;82.20;;;;;;5112254;27;45305;-72
2023/04/24 06:00:11;;;;;;;1.40;1.05;;;18.50;82.30;;;;;;5149173;27;45143;-72
2023/04/24 06:02:38;;;;;;;0.98;0.82;;;18.50;82.20;;;;;;5149235;27;45127;-72
2023/04/24 06:05:05;;;;;;;0.70;0.70;;;18.50;82.20;;;;;;5148946;27;46384;-72
2023/04/24 06:07:32;;;;;;;0.73;0.73;;;18.50;82.30;;;;;;5148762;27;45138;-72
2023/04/24 06:09:59;;;;;;;0.80;0.70;;;18.50;82.40;;;;;;5149257;27;45416;-72
2023/04/24 06:12:27;;;;;;;1.25;0.70;;;18.50;82.30;;;;;;5148732;27;45426;-72
2023/04/24 06:14:56;;;;;;;1.17;0.70;;;18.60;82.80;;;;;;5148890;27;45299;-72
2023/04/24 06:17:23;;;;;;;1.90;1.00;;;18.60;82.50;;;;;;5148714;27;45115;-72
2023/04/24 06:19:49;;;;;;;1.23;0.70;;;18.60;82.30;;;;;;5149409;27;45313;-70
2023/04/24 06:22:16;;;;;;;0.73;0.70;;;18.50;82.40;;;;;;5151148;27;45371;-72
2023/04/24 06:24:43;;;;;;;1.08;0.65;;;18.60;82.20;;;;;;5148444;27;46152;-72
2023/04/24 06:27:09;;;;;;;0.65;0.63;;;18.60;82.40;;;;;;5148559;27;45122;-72
2023/04/24 06:29:37;;;;;;;1.05;0.73;;;18.60;82.00;;;;;;5148771;27;45180;-72
2023/04/24 06:32:05;;;;;;;1.17;0.70;;;18.50;82.00;;;;;;5148664;27;45586;-72
2023/04/24 06:34:33;;;;;;;0.85;0.70;;;18.60;81.90;;;;;;5148434;27;45255;-73
2023/04/24 06:37:00;;;;;;;0.57;0.57;;;18.50;81.80;;;;;;5148149;27;46088;-73
2023/04/24 06:39:27;;;;;;;1.15;0.77;;;18.50;82.10;;;;;;5148661;27;45072;-72
2023/04/24 06:41:54;;;;;;;1.13;0.75;;;18.50;82.20;;;;;;5148647;27;45443;-72
2023/04/24 06:44:21;;;;;;;0.77;0.52;;;18.50;82.40;;;;;;5148163;27;46852;-72
2023/04/24 06:46:47;;;;;;;0.63;0.63;;;18.50;82.10;;;;;;5148397;27;45233;-72
2023/04/24 06:49:16;;;;;;;0.50;0.50;;;18.40;82.30;;;;;;5148379;27;45233;-72
2023/04/24 06:51:42;;;;;;;1.98;0.60;;;18.50;82.50;;;;;;5148103;27;45466;-72
2023/04/24 06:54:09;;;;;;;1.13;0.68;;;18.50;82.30;;;;;;5148056;27;46613;-72
2023/04/24 06:56:36;;;;;;;0.65;0.60;;;18.50;82.60;;;;;;5148399;27;45210;-72
2023/04/24 06:59:03;;;;;;;1.33;0.68;;;18.50;82.60;;;;;;5148297;27;45231;-72
2023/04/24 07:01:30;;;;;;;1.00;0.70;;;18.50;82.50;;;;;;5148441;27;45444;-72
2023/04/24 07:03:56;;;;;;;1.13;0.60;;;18.50;82.40;;;;;;5150938;27;46632;-72
2023/04/24 07:06:25;;;;;;;1.05;0.60;;;18.50;82.10;;;;;;5151750;27;45248;-72
2023/04/24 07:08:52;;;;;;;0.82;0.50;;;18.50;82.30;;;;;;5151732;27;45370;-72
2023/04/24 07:11:19;;;;;;;1.20;0.30;;;18.50;82.20;;;;;;5154936;27;45482;-71
2023/04/24 07:13:46;;;;;;;0.68;0.68;;;18.50;82.10;;;;;;5151409;27;46527;-72
2023/04/24 07:16:13;;;;;;;0.70;0.47;;;18.50;81.90;;;;;;5151701;27;45560;-72
2023/04/24 07:18:40;;;;;;;0.73;0.40;;;18.50;81.50;;;;;;5151850;27;45231;-72
2023/04/24 07:21:07;;;;;;;0.50;0.50;;;18.50;81.40;;;;;;5151767;27;45218;-71
2023/04/24 07:23:35;;;;;;;0.70;0.50;;;18.50;81.20;;;;;;5151513;27;47423;-72
2023/04/24 07:26:02;;;;;;;1.23;0.60;;;18.50;80.70;;;;;;5151309;27;46756;-72
2023/04/24 07:28:30;;;;;;;0.60;0.50;;;18.50;80.10;;;;;;5151653;27;45149;-72
2023/04/24 07:30:58;;;;;;;1.52;0.40;;;18.50;79.40;;;;;;5151667;27;45595;-72
2023/04/24 07:33:25;;;;;;;1.48;0.60;;;18.40;79.00;;;;;;5151166;27;47516;-72
2023/04/24 07:35:52;;;;;;;2.30;0.45;;;18.40;79.00;;;;;;5151278;27;45197;-72
2023/04/24 07:38:20;;;;;;;1.30;0.38;;;18.40;78.70;;;;;;5151377;27;45244;-72
2023/04/24 07:40:49;;;;;;;0.70;0.47;;;18.40;79.40;;;;;;5151314;27;45390;-71
2023/04/24 07:43:16;;;;;;;0.28;0.20;;;18.40;79.30;;;;;;5151001;27;45249;-72
2023/04/24 07:45:42;;;;;;;0.30;0.30;;;18.30;78.80;;;;;;5151100;27;45351;-72
2023/04/24 07:48:10;;;;;;;0.30;0.30;;;18.30;78.40;;;;;;5123559;27;45283;-72
2023/04/24 07:50:37;;;;;;;0.30;0.30;;;18.30;78.60;;;;;;5044914;28;45588;-72
2023/04/24 07:53:03;;;;;;;1.70;0.40;;;18.30;78.70;;;;;;5045062;28;46689;-72
2023/04/24 07:55:31;;;;;;;0.32;0.30;;;18.30;78.80;;;;;;5045621;28;45142;-72
2023/04/24 07:57:59;;;;;;;0.20;0.20;;;18.40;79.10;;;;;;5045093;28;45283;-72
2023/04/24 08:00:26;;;;;;;0.85;0.40;;;18.40;78.80;;;;;;5045177;28;45194;-72
2023/04/24 08:02:53;;;;;;;0.43;0.30;;;18.40;78.90;;;;;;5047545;28;46565;-71
2023/04/24 08:05:19;;;;;;;0.95;0.30;;;18.40;78.50;;;;;;5045055;28;45128;-72
2023/04/24 08:07:48;;;;;;;0.10;0.10;;;18.40;78.50;;;;;;5044929;28;45079;-72
2023/04/24 08:10:15;;;;;;;0.30;0.30;;;18.40;78.40;;;;;;5045277;28;45459;-72
2023/04/24 08:12:42;;;;;;;0.50;0.32;;;18.40;78.50;;;;;;5045002;28;48368;-72
2023/04/24 08:15:11;;;;;;;0.95;0.60;;;18.40;78.40;;;;;;5044202;28;45262;-72
2023/04/24 08:17:38;;;;;;;0.40;0.38;;;18.40;78.50;;;;;;5045192;28;45198;-72
2023/04/24 08:20:09;;;;;;;0.30;0.30;;;18.40;78.70;;;;;;5044836;28;45456;-72
2023/04/24 08:22:36;;;;;;;1.13;0.47;;;18.40;78.50;;;;;;5045177;28;47285;-72
2023/04/24 08:25:03;;;;;;;0.50;0.40;;;18.40;78.40;;;;;;5044814;28;45281;-72
2023/04/24 08:27:30;;;;;;;0.75;0.38;;;18.40;78.40;;;;;;5045747;28;45324;-72
2023/04/24 08:29:58;;;;;;;0.63;0.50;;;18.40;78.70;;;;;;5044684;28;45479;-73
2023/04/24 08:32:28;;;;;;;0.32;0.32;;;18.40;78.70;;;;;;5044651;28;45412;-73
2023/04/24 08:34:56;;;;;;;0.55;0.47;;;18.40;78.70;;;;;;5044407;28;45324;-72
2023/04/24 08:37:23;;;;;;;0.88;0.55;;;18.40;78.70;;;;;;5044642;28;45153;-72
2023/04/24 08:39:50;;;;;;;1.33;0.40;;;18.40;78.80;;;;;;5044878;28;45545;-72
2023/04/24 08:42:18;;;;;;;0.68;0.40;;;18.40;78.70;;;;;;5044615;28;45665;-72
2023/04/24 08:44:45;;;;;;;0.75;0.40;;;18.50;79.20;;;;;;5044447;28;45225;-73
2023/04/24 08:47:13;;;;;;;0.82;0.57;;;18.50;78.40;;;;;;5044755;28;45164;-72
2023/04/24 08:49:41;;;;;;;0.52;0.40;;;18.50;78.00;;;;;;5044225;28;45189;-72
2023/04/24 08:52:08;;;;;;;0.77;0.60;;;18.50;77.80;;;;;;5044917;28;47140;-72
2023/04/24 08:54:35;;;;;;;0.75;0.47;;;18.50;77.30;;;;;;5046671;28;45188;-71
2023/04/24 08:57:03;;;;;;;0.65;0.52;;;18.50;77.70;;;;;;5044663;28;45223;-71
2023/04/24 08:59:32;;;;;;;0.80;0.60;;;18.50;77.60;;;;;;5044410;28;45590;-71
2023/04/24 09:01:59;;;;;;;0.30;0.30;;;18.50;76.90;;;;;;5044233;28;45291;-71
2023/04/24 09:04:26;;;;;;;0.73;0.50;;;18.50;77.00;;;;;;5044475;28;45240;-72
2023/04/24 09:06:57;;;;;;;1.17;0.80;;;18.50;76.90;;;;;;5044199;28;45303;-72
2023/04/24 09:09:25;;;;;;;0.60;0.60;;;18.50;76.90;;;;;;5044205;28;45404;-71
2023/04/24 09:11:55;;;;;;;1.00;0.55;;;18.50;77.00;;;;;;5043191;28;45242;-69
2023/04/24 09:14:23;;;;;;;12.93;1.13;;;18.40;76.90;;;;;;5060755;27;45971;-70
2023/04/24 09:16:50;;;;;;;16.45;1.20;;;18.50;77.90;;;;;;5044061;28;45099;-70
2023/04/24 09:19:17;;;;;;;8.10;1.00;;;18.50;78.40;;;;;;5044322;28;45211;-70
2023/04/24 09:21:47;;;;;;;1.67;0.80;;;18.60;78.00;;;;;;5043922;28;46336;-70
2023/04/24 09:24:20;;;;;;;2.75;0.75;;;18.60;77.00;;;;;;5043886;27;45199;-70
2023/04/24 09:26:46;;;;;;;6.60;1.02;;;18.60;77.00;;;;;;5043095;28;45204;-70
2023/04/24 09:29:16;;;;;;;2.13;0.60;;;18.60;77.00;;;;;;5044175;28;45054;-70
2023/04/24 09:31:43;;;;;;;2.47;0.70;;;18.60;77.00;;;;;;5044072;28;45359;-70
2023/04/24 09:34:10;;;;;;;1.48;0.70;;;18.60;77.00;;;;;;5043765;27;45270;-70
2023/04/24 09:36:38;;;;;;;2.22;0.55;;;18.60;78.00;;;;;;5043976;28;45102;-70
2023/04/24 09:39:07;;;;;;;1.48;0.68;;;18.60;76.80;;;;;;5044238;28;45187;-70
2023/04/24 09:41:36;;;;;;;1.90;0.90;;;18.60;77.00;;;;;;5044336;27;45380;-70
2023/04/24 09:44:13;;;;;;;1.83;0.63;;;18.60;76.60;;;;;;5045379;27;45090;-69
2023/04/24 09:46:40;;;;;;;2.75;0.80;;;18.60;76.60;;;;;;5044452;27;45094;-70
2023/04/24 09:49:11;;;;;;;1.80;0.70;;;18.60;76.50;;;;;;5043981;27;45221;-70
2023/04/24 09:51:38;;;;;;;0.95;0.70;;;18.60;76.30;;;;;;5043434;28;46622;-70
2023/04/24 09:54:11;;;;;;;1.35;0.68;;;18.60;76.30;;;;;;5043673;27;45114;-70
2023/04/24 09:56:44;;;;;;;0.70;0.60;;;18.60;76.20;;;;;;5043662;27;45119;-70
2023/04/24 09:59:10;;;;;;;4.07;1.05;;;18.60;76.10;;;;;;5043867;27;45430;-70
2023/04/24 10:01:38;;;;;;;1.05;0.70;;;18.60;76.20;;;;;;5043530;28;46705;-70
2023/04/24 10:04:05;;;;;;;0.90;0.60;;;18.60;76.20;;;;;;5043421;27;45148;-70
2023/04/24 10:06:34;;;;;;;0.70;0.65;;;18.60;76.10;;;;;;5043745;27;45356;-70
2023/04/24 10:09:01;;;;;;;1.05;0.68;;;18.60;76.20;;;;;;5044101;27;45049;-70
2023/04/24 10:11:29;;;;;;;1.27;0.70;;;18.60;76.10;;;;;;5043349;28;46872;-70
2023/04/24 10:13:57;;;;;;;2.13;0.85;;;18.60;76.10;;;;;;5043670;28;45228;-70
2023/04/24 10:16:26;;;;;;;2.00;0.68;;;18.60;76.00;;;;;;5043591;27;45299;-70
2023/04/24 10:18:53;;;;;;;1.95;0.90;;;18.70;76.20;;;;;;5043451;27;45149;-70
2023/04/24 10:21:21;;;;;;;1.58;1.02;;;18.60;76.10;;;;;;5043351;27;46479;-70
2023/04/24 10:23:49;;;;;;;1.63;0.90;;;18.70;76.00;;;;;;5043389;28;45398;-70
2023/04/24 10:26:19;;;;;;;1.02;0.60;;;18.70;76.10;;;;;;5043372;28;45297;-70
2023/04/24 10:28:46;;;;;;;2.58;0.82;;;18.70;76.20;;;;;;5043584;28;45112;-70
2023/04/24 10:31:15;;;;;;;1.48;0.70;;;18.60;75.90;;;;;;5043569;28;45455;-70
2023/04/24 10:33:44;;;;;;;1.27;0.70;;;18.60;76.00;;;;;;5043389;27;45245;-70
2023/04/24 10:36:12;;;;;;;3.83;0.93;;;18.60;76.10;;;;;;5045500;27;45174;-70
2023/04/24 10:38:41;;;;;;;0.80;0.55;;;18.60;75.90;;;;;;5043101;27;45466;-70
2023/04/24 10:41:09;;;;;;;1.02;0.60;;;18.60;75.70;;;;;;5043078;28;47067;-70
2023/04/24 10:43:36;;;;;;;2.05;0.82;;;18.70;75.90;;;;;;5043308;28;45120;-70
2023/04/24 10:46:03;;;;;;;2.38;0.68;;;18.70;75.90;;;;;;5043227;27;45388;-70
2023/04/24 10:48:33;;;;;;;0.95;0.68;;;18.60;75.80;;;;;;5042994;27;45437;-70
2023/04/24 10:51:00;;;;;;;1.23;0.65;;;18.60;75.50;;;;;;5042522;28;47525;-70
2023/04/24 10:53:29;;;;;;;3.15;1.00;;;18.60;75.70;;;;;;5043096;28;45270;-70
2023/04/24 10:56:00;;;;;;;1.90;0.68;;;18.70;75.70;;;;;;5043100;27;45279;-70
2023/04/24 10:58:38;;;;;;;1.52;0.70;;;18.70;75.60;;;;;;5043253;28;45351;-70
2023/04/24 11:01:05;;;;;;;2.00;0.85;;;18.60;75.70;;;;;;5042824;27;45227;-70
2023/04/24 11:03:35;;;;;;;2.03;0.70;;;18.60;75.80;;;;;;5042525;27;45235;-70
2023/04/24 11:06:03;;;;;;;1.85;0.60;;;18.60;75.70;;;;;;5042813;27;45324;-70
2023/04/24 11:08:33;;;;;;;1.40;0.77;;;18.60;75.90;;;;;;5043234;28;45238;-70
2023/04/24 11:11:05;;;;;;;1.02;0.52;;;18.60;76.00;;;;;;5042498;28;46602;-70
2023/04/24 11:14:03;;;;;;;2.00;0.77;;;18.60;76.00;;;;;;5042534;28;45391;-70
2023/04/24 11:16:32;;;;;;;1.08;0.70;;;18.60;76.00;;;;;;5042743;28;45214;-71
2023/04/24 11:19:06;;;;;;;1.65;0.80;;;18.60;75.90;;;;;;5042504;28;45347;-71
2023/04/24 11:21:39;;;;;;;2.00;0.70;;;18.60;76.00;;;;;;5042489;27;46586;-71
2023/04/24 11:24:31;;;;;;;1.23;0.55;;;18.60;76.00;;;;;;5042598;27;45247;-70
2023/04/24 11:26:59;;;;;;;2.97;0.93;;;18.60;75.90;;;;;;5045900;28;45176;-70
2023/04/24 11:29:59;;;;;;;2.85;1.00;;;18.60;76.00;;;;;;5042489;28;45701;-71
2023/04/24 11:32:28;;;;;;;1.80;0.80;;;18.60;76.10;;;;;;5039748;27;45746;-69
2023/04/24 11:34:58;;;;;;;16.52;1.45;;;18.60;76.30;;;;;;5036256;27;45250;-69
2023/04/24 11:37:27;;;;;;;6.68;1.08;;;18.70;77.10;;;;;;5030942;27;45452;-74
2023/04/24 11:39:55;;;;;;;3.60;0.90;;;18.70;77.10;;;;;;5035151;28;45492;-73
2023/04/24 11:42:23;;;;;;;3.05;0.77;;;18.70;76.40;;;;;;5034899;27;47043;-73
2023/04/24 11:44:50;;;;;;;2.00;0.88;;;18.60;77.00;;;;;;5062329;27;45426;-73
2023/04/24 11:47:17;;;;;;;2.88;0.90;;;18.60;77.00;;;;;;5071046;27;45313;-72
2023/04/24 11:49:44;;;;;;;1.73;0.73;;;18.60;77.00;;;;;;5070100;27;45379;-72
2023/04/24 11:52:16;;;;;;;6.10;0.90;;;18.60;77.00;;;;;;5046314;27;47034;-72
2023/04/24 11:54:48;;;;;;;5.78;0.90;;;18.50;77.00;;;;;;5060041;27;45403;-73
2023/04/24 11:57:15;;;;;;;1.45;0.70;;;18.60;77.00;;;;;;5075030;27;45476;-73
2023/04/24 11:59:42;;;;;;;4.35;1.05;;;18.60;77.00;;;;;;5087993;27;45359;-72
2023/04/24 12:02:09;;;;;;;3.22;0.68;;;18.50;77.10;;;;;;5039061;27;46615;-72
2023/04/24 12:04:41;;;;;;;1.95;0.95;;;18.50;76.90;;;;;;5034128;27;45393;-73
2023/04/24 12:07:08;;;;;;;2.00;0.90;;;18.60;78.00;;;;;;5039533;28;45440;-73
2023/04/24 12:09:49;;;;;;;3.42;1.13;;;18.50;76.90;;;;;;5038769;27;45419;-73
2023/04/24 12:12:17;;;;;;;2.00;0.68;;;18.60;77.00;;;;;;5040776;28;47948;-73
2023/04/24 12:14:45;;;;;;;3.75;0.63;;;18.60;77.00;;;;;;5038825;28;45347;-72
2023/04/24 12:17:12;;;;;;;1.88;0.70;;;18.50;77.00;;;;;;5062134;27;45489;-73
2023/04/24 12:19:45;;;;;;;1.88;0.85;;;18.50;76.90;;;;;;5065556;27;45295;-73
2023/04/24 12:22:12;;;;;;;1.05;0.65;;;18.50;77.00;;;;;;5039024;28;46278;-73
2023/04/24 12:24:59;;;;;;;2.97;0.90;;;18.50;76.90;;;;;;5041667;27;45310;-73
2023/04/24 12:27:26;;;;;;;2.70;0.88;;;18.50;76.90;;;;;;5039904;28;45271;-73
2023/04/24 12:29:54;;;;;;;2.25;0.88;;;18.50;76.90;;;;;;5034751;27;45501;-72
2023/04/24 12:32:21;;;;;;;2.25;1.08;;;18.50;76.50;;;;;;5041143;27;46314;-72
2023/04/24 12:34:48;;;;;;;2.15;0.82;;;18.50;76.60;;;;;;5039477;28;45253;-72
2023/04/24 12:37:14;;;;;;;1.00;0.60;;;18.50;76.50;;;;;;5042024;28;45309;-73
2023/04/24 12:39:58;;;;;;;1.75;0.75;;;18.50;76.20;;;;;;5041435;27;45236;-73
2023/04/24 12:42:29;;;;;;;1.60;0.70;;;18.50;76.10;;;;;;5047325;27;46859;-73
2023/04/24 12:44:59;;;;;;;1.45;0.80;;;18.50;77.00;;;;;;5039870;27;46795;-72
2023/04/24 12:47:27;;;;;;;3.60;0.80;;;18.50;77.00;;;;;;5042618;27;45398;-72
2023/04/24 12:49:55;;;;;;;1.88;0.70;;;18.50;76.90;;;;;;5053741;27;45545;-72